Time;durP1;ratioP1;P1;durP2;ratioP2;P2;SDS_P1;SDS_P2;PMS_P1;PMS_P2;Temp;Humidity;BMP_temperature;BMP_pressure;BME280_temperature;BME280_humidity;BME280_pressure;Samples;Min_cycle;Max_cycle;Signal;HPM_P1;HPM_P2
2023/06/11 00:00:18;;;;;;;5.30;4.18;;;23.20;81.70;;;;;;5062964;28;20112;-80
2023/06/11 00:02:43;;;;;;;4.65;3.58;;;23.20;81.80;;;;;;5073436;28;20048;-82
2023/06/11 00:05:09;;;;;;;5.63;4.22;;;23.20;82.00;;;;;;5072746;28;20077;-83
2023/06/11 00:07:37;;;;;;;6.25;4.25;;;23.10;82.20;;;;;;5061241;28;20036;-82
2023/06/11 00:10:06;;;;;;;5.72;4.20;;;23.10;82.40;;;;;;5074436;28;20040;-82
2023/06/11 00:12:33;;;;;;;4.50;3.65;;;23.00;82.50;;;;;;5072028;28;20537;-80
2023/06/11 00:15:02;;;;;;;6.05;4.30;;;22.90;82.80;;;;;;5073121;28;20397;-81
2023/06/11 00:17:28;;;;;;;5.45;4.15;;;22.90;82.90;;;;;;5072823;28;20482;-81
2023/06/11 00:19:54;;;;;;;7.07;4.35;;;22.90;83.10;;;;;;5073498;28;20064;-81
2023/06/11 00:22:19;;;;;;;4.45;3.95;;;22.90;83.20;;;;;;5074359;28;20163;-81
2023/06/11 00:24:46;;;;;;;7.00;4.38;;;22.80;83.30;;;;;;5062583;28;20078;-80
2023/06/11 00:27:11;;;;;;;5.22;4.28;;;22.70;83.60;;;;;;5072188;28;20470;-82
2023/06/11 00:29:37;;;;;;;5.88;4.35;;;22.70;83.70;;;;;;5061193;28;20043;-81
2023/06/11 00:32:03;;;;;;;5.80;4.00;;;22.70;83.80;;;;;;5073620;28;20036;-81
2023/06/11 00:34:28;;;;;;;6.30;4.95;;;22.60;84.00;;;;;;5072946;28;20036;-81
2023/06/11 00:36:54;;;;;;;5.05;4.03;;;22.60;84.80;;;;;;5073054;28;20028;-81
2023/06/11 00:39:20;;;;;;;5.63;4.22;;;22.60;84.30;;;;;;5072121;28;20028;-81
2023/06/11 00:41:48;;;;;;;6.43;4.82;;;22.60;84.40;;;;;;5072797;28;20036;-81
2023/06/11 00:44:17;;;;;;;4.93;4.03;;;22.60;84.50;;;;;;5061192;28;20034;-82
2023/06/11 00:46:47;;;;;;;5.68;4.32;;;22.50;84.60;;;;;;5073523;28;20439;-82
2023/06/11 00:49:13;;;;;;;5.13;4.30;;;22.50;84.80;;;;;;5073177;28;20630;-82
2023/06/11 00:51:44;;;;;;;5.22;4.28;;;22.50;84.90;;;;;;5061561;28;20081;-83
2023/06/11 00:54:12;;;;;;;4.93;4.07;;;22.50;85.10;;;;;;5054254;28;20119;-81
2023/06/11 00:56:41;;;;;;;5.93;4.30;;;22.40;85.20;;;;;;5072394;28;20020;-83
2023/06/11 00:59:08;;;;;;;5.65;4.30;;;22.40;85.40;;;;;;5071920;28;20646;-81
2023/06/11 01:01:41;;;;;;;5.20;3.90;;;22.40;85.60;;;;;;5056025;28;20032;-81
2023/06/11 01:04:17;;;;;;;5.78;4.57;;;22.40;85.80;;;;;;5072301;28;20527;-81
2023/06/11 01:06:46;;;;;;;5.38;4.28;;;22.40;86.00;;;;;;5073922;28;20020;-80
2023/06/11 01:09:16;;;;;;;5.45;4.15;;;22.30;86.00;;;;;;5072399;28;20024;-81
2023/06/11 01:11:41;;;;;;;6.35;4.60;;;22.30;86.10;;;;;;5073810;28;20030;-82
2023/06/11 01:14:13;;;;;;;5.45;4.50;;;22.30;86.40;;;;;;5072967;28;20032;-82
2023/06/11 01:17:02;;;;;;;5.30;4.05;;;22.30;86.40;;;;;;5073021;28;20513;-82
2023/06/11 01:19:37;;;;;;;5.30;4.75;;;22.20;86.40;;;;;;5059281;28;20040;-81
2023/06/11 01:22:13;;;;;;;5.85;4.03;;;22.20;86.60;;;;;;5072346;28;20036;-83
2023/06/11 01:24:59;;;;;;;4.85;4.20;;;22.20;86.80;;;;;;5062350;28;20682;-81
2023/06/11 01:27:43;;;;;;;6.28;4.32;;;22.20;86.80;;;;;;5036184;28;20072;-82
2023/06/11 01:30:17;;;;;;;5.25;4.38;;;22.10;86.90;;;;;;5071418;28;20028;-81
2023/06/11 01:32:52;;;;;;;6.20;4.05;;;22.10;87.20;;;;;;5062344;28;20048;-82
2023/06/11 01:35:17;;;;;;;7.30;4.47;;;22.10;87.40;;;;;;5073113;28;20047;-82
2023/06/11 01:37:45;;;;;;;6.10;5.03;;;22.00;87.50;;;;;;5072755;28;20020;-82
2023/06/11 01:40:14;;;;;;;5.50;4.05;;;22.00;87.60;;;;;;5063303;28;20453;-82
2023/06/11 01:42:40;;;;;;;5.45;4.60;;;22.00;87.80;;;;;;5063002;28;20106;-82
2023/06/11 01:45:07;;;;;;;7.13;4.68;;;21.90;87.90;;;;;;5072821;28;20059;-83
2023/06/11 01:47:33;;;;;;;5.78;4.68;;;21.90;88.10;;;;;;5073631;28;20026;-81
2023/06/11 01:49:59;;;;;;;4.95;4.13;;;21.80;88.20;;;;;;5073511;28;20033;-82
2023/06/11 01:52:24;;;;;;;5.10;4.30;;;21.80;88.30;;;;;;5071853;28;20035;-82
2023/06/11 01:54:51;;;;;;;6.25;4.72;;;21.80;88.50;;;;;;5071806;28;20485;-82
2023/06/11 01:57:17;;;;;;;6.13;4.65;;;21.80;88.70;;;;;;5072776;28;20043;-81
2023/06/11 01:59:42;;;;;;;6.13;4.30;;;21.70;88.80;;;;;;5071156;28;21845;-81
2023/06/11 02:02:08;;;;;;;6.13;5.03;;;21.70;89.00;;;;;;5063020;28;20044;-82
2023/06/11 02:04:34;;;;;;;5.60;4.50;;;21.70;89.20;;;;;;5063150;28;20031;-82
2023/06/11 02:07:00;;;;;;;6.68;4.47;;;21.60;89.30;;;;;;5075034;28;20029;-81
2023/06/11 02:09:25;;;;;;;5.50;4.40;;;21.60;89.50;;;;;;5076333;28;20415;-82
2023/06/11 02:11:51;;;;;;;6.35;4.53;;;21.50;89.60;;;;;;5076578;28;20082;-82
2023/06/11 02:14:16;;;;;;;5.22;4.57;;;21.50;89.80;;;;;;5077366;28;20594;-82
2023/06/11 02:16:42;;;;;;;6.95;4.93;;;21.50;90.00;;;;;;5065484;28;20028;-82
2023/06/11 02:19:07;;;;;;;5.63;4.20;;;21.40;90.00;;;;;;5076647;28;20059;-82
2023/06/11 02:21:33;;;;;;;5.75;4.15;;;21.40;90.10;;;;;;5064847;28;20066;-82
2023/06/11 02:23:59;;;;;;;6.53;4.90;;;21.40;90.20;;;;;;5075564;28;20072;-81
2023/06/11 02:26:25;;;;;;;5.20;4.57;;;21.30;90.20;;;;;;5074689;28;20036;-82
2023/06/11 02:28:51;;;;;;;7.07;4.68;;;21.30;90.30;;;;;;5075346;28;20028;-81
2023/06/11 02:31:17;;;;;;;5.90;4.55;;;21.30;90.40;;;;;;5075564;28;20035;-81
2023/06/11 02:33:42;;;;;;;7.68;4.97;;;21.20;90.40;;;;;;5076842;28;20028;-81
2023/06/11 02:36:08;;;;;;;5.68;4.68;;;21.10;90.50;;;;;;5075918;28;20021;-81
2023/06/11 02:38:34;;;;;;;6.65;5.20;;;21.10;90.60;;;;;;5075444;28;20109;-82
2023/06/11 02:40:59;;;;;;;6.68;4.63;;;21.10;90.60;;;;;;5076196;28;20039;-81
2023/06/11 02:43:25;;;;;;;5.75;4.53;;;21.10;91.00;;;;;;5076093;28;20116;-81
2023/06/11 02:45:50;;;;;;;5.13;4.25;;;21.00;90.80;;;;;;5076833;28;20544;-81
2023/06/11 02:48:16;;;;;;;4.97;4.38;;;21.00;90.80;;;;;;5076669;28;20041;-81
2023/06/11 02:50:41;;;;;;;5.68;4.55;;;21.00;90.90;;;;;;5076939;28;20035;-81
2023/06/11 02:53:07;;;;;;;6.47;4.63;;;20.90;90.90;;;;;;5074596;28;20415;-81
2023/06/11 02:55:32;;;;;;;5.32;4.78;;;20.90;91.00;;;;;;5074982;28;20103;-82
2023/06/11 02:57:58;;;;;;;5.63;4.43;;;20.80;91.00;;;;;;5076004;28;20031;-81
2023/06/11 03:00:25;;;;;;;6.78;4.63;;;20.80;91.10;;;;;;5075838;28;20576;-81
2023/06/11 03:02:51;;;;;;;5.53;4.43;;;20.80;91.10;;;;;;5076360;28;20372;-82
2023/06/11 03:05:16;;;;;;;5.03;4.30;;;20.80;91.10;;;;;;5076646;28;20031;-82
2023/06/11 03:07:42;;;;;;;6.47;4.40;;;20.80;91.10;;;;;;5075972;28;20028;-81
2023/06/11 03:10:07;;;;;;;5.38;4.65;;;20.70;91.20;;;;;;5075158;28;20166;-82
2023/06/11 03:12:33;;;;;;;4.97;4.38;;;20.70;91.20;;;;;;5075914;28;20039;-82
2023/06/11 03:14:58;;;;;;;6.18;4.38;;;20.70;91.20;;;;;;5063562;28;20512;-82
2023/06/11 03:17:24;;;;;;;7.28;4.55;;;20.70;91.20;;;;;;5060169;28;20024;-82
2023/06/11 03:19:49;;;;;;;6.75;4.38;;;20.60;91.20;;;;;;5076262;28;20358;-82
2023/06/11 03:22:15;;;;;;;5.95;4.05;;;20.60;91.30;;;;;;5073573;28;21089;-81
2023/06/11 03:24:41;;;;;;;5.40;4.55;;;20.60;91.30;;;;;;5075902;28;20083;-82
2023/06/11 03:27:06;;;;;;;5.47;4.20;;;20.60;91.40;;;;;;5074259;28;20039;-82
2023/06/11 03:29:32;;;;;;;5.15;4.10;;;20.60;91.40;;;;;;5074927;28;20050;-82
2023/06/11 03:31:57;;;;;;;4.90;4.28;;;20.50;91.40;;;;;;5073661;28;20525;-81
2023/06/11 03:34:23;;;;;;;6.15;4.70;;;20.50;91.50;;;;;;5076410;28;20111;-81
2023/06/11 03:36:48;;;;;;;4.88;4.22;;;20.50;91.50;;;;;;5074272;28;20415;-82
2023/06/11 03:39:14;;;;;;;5.78;4.20;;;20.50;91.50;;;;;;5074927;28;20040;-81
2023/06/11 03:41:39;;;;;;;5.30;4.30;;;20.50;91.60;;;;;;5073420;28;20041;-82
2023/06/11 03:44:05;;;;;;;4.80;3.83;;;20.50;91.60;;;;;;5074231;28;20406;-82
2023/06/11 03:46:31;;;;;;;5.95;4.32;;;20.40;91.60;;;;;;5064328;28;20378;-81
2023/06/11 03:48:57;;;;;;;5.30;4.30;;;20.50;91.90;;;;;;5075459;28;20023;-82
2023/06/11 03:51:22;;;;;;;6.50;4.63;;;20.40;91.70;;;;;;5075105;28;20492;-83
2023/06/11 03:53:48;;;;;;;5.72;4.47;;;20.40;91.70;;;;;;5073268;28;20103;-81
2023/06/11 03:56:13;;;;;;;5.43;4.28;;;20.40;91.70;;;;;;5075455;28;20406;-82
2023/06/11 03:58:39;;;;;;;5.32;4.10;;;20.40;91.80;;;;;;5072941;28;20492;-82
2023/06/11 04:01:05;;;;;;;5.45;3.97;;;20.40;91.80;;;;;;5075525;28;20417;-82
2023/06/11 04:03:31;;;;;;;4.55;4.07;;;20.40;91.80;;;;;;5075439;28;20093;-83
2023/06/11 04:05:56;;;;;;;5.80;4.72;;;20.40;91.90;;;;;;5074366;28;20013;-82
2023/06/11 04:08:22;;;;;;;4.90;4.05;;;20.30;91.90;;;;;;5073881;28;20382;-82
2023/06/11 04:10:47;;;;;;;4.68;3.83;;;20.30;91.90;;;;;;5074968;28;20024;-82
2023/06/11 04:13:13;;;;;;;4.75;4.03;;;20.30;91.90;;;;;;5073050;28;20032;-82
2023/06/11 04:15:38;;;;;;;6.18;4.13;;;20.40;92.00;;;;;;5074700;28;20028;-83
2023/06/11 04:18:04;;;;;;;5.07;3.97;;;20.40;92.00;;;;;;5074154;28;20024;-82
2023/06/11 04:20:30;;;;;;;4.72;3.88;;;20.30;92.00;;;;;;5074721;28;20029;-82
2023/06/11 04:22:57;;;;;;;5.05;3.78;;;20.40;92.00;;;;;;5072954;28;20056;-82
2023/06/11 04:25:23;;;;;;;4.60;3.55;;;20.40;92.00;;;;;;5073117;28;20043;-82
2023/06/11 04:27:49;;;;;;;6.00;3.67;;;20.40;92.00;;;;;;5073843;28;20483;-82
2023/06/11 04:30:14;;;;;;;4.40;4.00;;;20.40;92.10;;;;;;5075233;28;21968;-82
2023/06/11 04:32:41;;;;;;;6.05;3.85;;;20.40;92.10;;;;;;5074590;28;20478;-81
2023/06/11 04:35:07;;;;;;;4.80;4.05;;;20.40;92.10;;;;;;5062649;28;20111;-82
2023/06/11 04:37:40;;;;;;;4.35;3.67;;;20.50;92.10;;;;;;5073466;28;20031;-82
2023/06/11 04:40:10;;;;;;;4.80;3.67;;;20.50;92.10;;;;;;5073176;28;20030;-82
2023/06/11 04:42:40;;;;;;;5.05;4.25;;;20.50;92.10;;;;;;5073148;28;20075;-82
2023/06/11 04:45:08;;;;;;;6.20;4.50;;;20.50;92.20;;;;;;5073260;28;20486;-82
2023/06/11 04:47:34;;;;;;;5.35;4.18;;;20.50;92.20;;;;;;5075624;28;20689;-82
2023/06/11 04:50:03;;;;;;;4.97;4.03;;;20.60;92.20;;;;;;5072221;28;20028;-82
2023/06/11 04:52:37;;;;;;;5.22;4.05;;;20.60;92.20;;;;;;5072392;28;20503;-82
2023/06/11 04:55:03;;;;;;;5.72;3.92;;;20.60;92.20;;;;;;5072837;28;20484;-82
2023/06/11 04:57:34;;;;;;;5.75;3.90;;;20.60;92.10;;;;;;5073279;28;20245;-81
2023/06/11 05:00:00;;;;;;;4.22;3.80;;;20.70;92.10;;;;;;5073579;28;20028;-81
2023/06/11 05:02:26;;;;;;;4.72;4.05;;;20.70;92.10;;;;;;5074713;28;20039;-81
2023/06/11 05:04:53;;;;;;;4.97;4.10;;;20.70;92.10;;;;;;5055756;28;22435;-82
2023/06/11 05:07:19;;;;;;;5.20;3.90;;;20.80;92.10;;;;;;5073083;28;20028;-83
2023/06/11 05:09:46;;;;;;;5.90;4.35;;;20.90;92.10;;;;;;5073766;28;20088;-82
2023/06/11 05:12:11;;;;;;;6.35;4.07;;;20.90;92.10;;;;;;5072959;28;20060;-82
2023/06/11 05:14:38;;;;;;;4.38;3.65;;;20.90;92.10;;;;;;5073593;28;20027;-81
2023/06/11 05:17:03;;;;;;;4.50;3.30;;;21.00;92.10;;;;;;5074552;28;20065;-82
2023/06/11 05:19:30;;;;;;;6.25;4.20;;;21.00;92.10;;;;;;5072325;28;20024;-83
2023/06/11 05:21:55;;;;;;;5.15;4.28;;;21.10;92.10;;;;;;5071788;28;20032;-82
2023/06/11 05:24:21;;;;;;;4.53;3.67;;;21.10;92.10;;;;;;5073027;28;20381;-82
2023/06/11 05:26:47;;;;;;;4.45;3.70;;;21.10;92.00;;;;;;5071527;28;20437;-81
2023/06/11 05:29:12;;;;;;;5.18;3.67;;;21.20;92.00;;;;;;5073109;28;20025;-82
2023/06/11 05:31:38;;;;;;;4.78;3.65;;;21.20;92.00;;;;;;5074179;28;20082;-81
2023/06/11 05:34:04;;;;;;;4.53;3.70;;;21.30;92.00;;;;;;5071691;28;20028;-82
2023/06/11 05:36:30;;;;;;;4.53;3.88;;;21.30;92.00;;;;;;5062588;28;20054;-82
2023/06/11 05:38:55;;;;;;;4.38;3.67;;;21.30;92.00;;;;;;5071521;28;20062;-82
2023/06/11 05:41:22;;;;;;;4.03;3.60;;;21.30;91.90;;;;;;5073719;28;20116;-82
2023/06/11 05:43:48;;;;;;;6.05;4.32;;;21.50;92.00;;;;;;5072609;28;20089;-82
2023/06/11 05:46:14;;;;;;;6.60;4.50;;;21.50;92.00;;;;;;5073896;28;20024;-82
2023/06/11 05:48:41;;;;;;;6.13;4.50;;;21.50;92.00;;;;;;5072806;28;20029;-83
2023/06/11 05:51:06;;;;;;;5.13;4.47;;;21.60;92.00;;;;;;5072153;28;20039;-81
2023/06/11 05:53:32;;;;;;;4.78;3.95;;;21.60;91.80;;;;;;5073103;28;20017;-82
2023/06/11 05:56:03;;;;;;;5.28;4.38;;;21.70;91.80;;;;;;5071501;28;20066;-81
2023/06/11 05:58:32;;;;;;;5.43;4.30;;;21.70;91.90;;;;;;5072668;28;20032;-80
2023/06/11 06:01:02;;;;;;;5.10;4.45;;;21.80;91.80;;;;;;5074460;28;20056;-82
2023/06/11 06:03:29;;;;;;;5.43;4.60;;;21.80;91.80;;;;;;5071737;28;22594;-81
2023/06/11 06:05:55;;;;;;;5.40;4.45;;;21.90;91.80;;;;;;5071422;28;20027;-82
2023/06/11 06:08:20;;;;;;;4.85;4.13;;;22.00;91.80;;;;;;5071472;28;20390;-82
2023/06/11 06:10:46;;;;;;;5.20;4.45;;;22.00;91.80;;;;;;5072434;28;20028;-82
2023/06/11 06:13:11;;;;;;;5.72;4.63;;;22.00;91.70;;;;;;5073206;28;20020;-82
2023/06/11 06:15:37;;;;;;;4.82;4.30;;;22.10;91.70;;;;;;5072859;28;20102;-82
2023/06/11 06:18:05;;;;;;;4.18;3.50;;;22.20;91.70;;;;;;5072088;28;20051;-82
2023/06/11 06:20:30;;;;;;;4.80;4.28;;;22.20;91.70;;;;;;5072765;28;20040;-81
2023/06/11 06:22:56;;;;;;;5.10;4.18;;;22.20;91.70;;;;;;5071770;28;20097;-82
2023/06/11 06:25:24;;;;;;;5.03;4.53;;;22.30;91.70;;;;;;5072559;28;20024;-82
2023/06/11 06:27:50;;;;;;;5.28;4.40;;;22.30;91.80;;;;;;5072086;28;20037;-82
2023/06/11 06:30:16;;;;;;;5.55;4.20;;;22.40;91.70;;;;;;5073040;28;20346;-81
2023/06/11 06:32:43;;;;;;;5.45;4.60;;;22.40;91.70;;;;;;5072164;28;20039;-82
2023/06/11 06:35:09;;;;;;;6.28;4.18;;;22.50;91.80;;;;;;5072591;28;20819;-83
2023/06/11 06:37:35;;;;;;;4.72;4.10;;;22.50;91.80;;;;;;5072696;28;20490;-82
2023/06/11 06:40:01;;;;;;;5.68;4.22;;;22.60;91.80;;;;;;5072151;28;20091;-83
2023/06/11 06:42:27;;;;;;;4.97;4.18;;;22.70;91.80;;;;;;5072067;28;20801;-82
2023/06/11 06:44:52;;;;;;;5.30;4.22;;;22.70;91.70;;;;;;5073322;28;20036;-82
2023/06/11 06:47:18;;;;;;;4.70;3.85;;;22.80;91.80;;;;;;5072183;28;20111;-83
2023/06/11 06:49:44;;;;;;;5.85;4.65;;;22.80;91.80;;;;;;5074252;28;20028;-82
2023/06/11 06:52:11;;;;;;;6.38;4.40;;;22.90;91.80;;;;;;5075671;28;20032;-82
2023/06/11 06:54:37;;;;;;;5.00;4.10;;;22.90;91.80;;;;;;5074402;28;20028;-81
2023/06/11 06:57:03;;;;;;;5.07;4.07;;;23.00;91.80;;;;;;5075224;28;20457;-82
2023/06/11 06:59:28;;;;;;;6.00;4.10;;;23.00;91.80;;;;;;5077186;28;20035;-82
2023/06/11 07:01:54;;;;;;;4.68;4.18;;;23.10;91.80;;;;;;5075372;28;20131;-82
2023/06/11 07:04:19;;;;;;;4.78;4.00;;;23.10;91.70;;;;;;5074839;28;20031;-82
2023/06/11 07:06:45;;;;;;;5.55;4.63;;;23.20;91.80;;;;;;5075711;28;20028;-86
2023/06/11 07:09:11;;;;;;;5.45;4.43;;;23.20;91.80;;;;;;5058970;28;20039;-81
2023/06/11 07:11:36;;;;;;;5.20;4.40;;;23.30;91.70;;;;;;5066107;28;20055;-81
2023/06/11 07:14:02;;;;;;;5.00;3.90;;;23.30;91.60;;;;;;5072910;28;20593;-82
2023/06/11 07:16:27;;;;;;;5.80;4.43;;;23.40;91.60;;;;;;5062307;28;20032;-81
2023/06/11 07:18:53;;;;;;;4.57;4.18;;;23.40;91.60;;;;;;5072466;28;20020;-80
2023/06/11 07:21:19;;;;;;;6.28;4.47;;;23.50;91.60;;;;;;5074063;28;22274;-82
2023/06/11 07:23:44;;;;;;;4.60;4.10;;;23.60;91.60;;;;;;5073568;28;20052;-81
2023/06/11 07:26:15;;;;;;;5.82;4.63;;;23.60;91.50;;;;;;5072045;28;20028;-82
2023/06/11 07:28:41;;;;;;;7.38;5.03;;;23.60;91.60;;;;;;5073987;28;20532;-82
2023/06/11 07:31:07;;;;;;;5.78;4.63;;;23.70;91.60;;;;;;5072880;28;20028;-81
2023/06/11 07:33:33;;;;;;;5.93;4.80;;;23.80;91.50;;;;;;5058538;28;20367;-82
2023/06/11 07:35:59;;;;;;;5.85;4.80;;;23.80;91.50;;;;;;5073622;28;20083;-82
2023/06/11 07:38:25;;;;;;;6.03;4.82;;;23.90;91.50;;;;;;5072076;28;20024;-83
2023/06/11 07:40:52;;;;;;;5.63;4.60;;;24.00;91.50;;;;;;5072278;28;20169;-82
2023/06/11 07:43:17;;;;;;;5.50;4.72;;;24.10;91.40;;;;;;5073491;28;20127;-81
2023/06/11 07:45:43;;;;;;;5.32;4.82;;;24.10;91.40;;;;;;5062714;28;20016;-82
2023/06/11 07:48:09;;;;;;;7.28;5.72;;;24.20;91.30;;;;;;5071004;28;20096;-81
2023/06/11 07:50:35;;;;;;;8.20;5.75;;;24.30;91.20;;;;;;5071220;28;20111;-81
2023/06/11 07:53:01;;;;;;;6.30;4.97;;;24.30;91.50;;;;;;5072790;28;20480;-80
2023/06/11 07:55:26;;;;;;;6.40;4.50;;;24.30;91.20;;;;;;5071581;28;20485;-79
2023/06/11 07:57:52;;;;;;;6.80;5.00;;;24.40;91.20;;;;;;5072848;28;20035;-83
2023/06/11 08:00:17;;;;;;;6.90;5.45;;;24.50;91.20;;;;;;5071709;28;20024;-82
2023/06/11 08:02:46;;;;;;;6.22;5.35;;;24.60;91.20;;;;;;5072598;28;20036;-81
2023/06/11 08:05:17;;;;;;;7.65;5.38;;;24.70;91.10;;;;;;5070706;28;20104;-83
2023/06/11 08:07:44;;;;;;;5.00;4.50;;;24.80;91.10;;;;;;5073123;28;20105;-82
2023/06/11 08:10:09;;;;;;;5.28;4.30;;;24.80;91.10;;;;;;5072031;28;20028;-82
2023/06/11 08:12:35;;;;;;;5.82;4.65;;;24.90;91.00;;;;;;5072244;28;20397;-82
2023/06/11 08:15:01;;;;;;;5.05;3.95;;;25.00;91.00;;;;;;5069894;28;20019;-82
2023/06/11 08:17:26;;;;;;;4.53;3.85;;;25.00;91.00;;;;;;5071109;28;20099;-82
2023/06/11 08:19:52;;;;;;;5.03;4.38;;;25.10;91.00;;;;;;5071584;28;20047;-82
2023/06/11 08:22:17;;;;;;;5.65;4.63;;;25.10;90.90;;;;;;5071690;28;20071;-82
2023/06/11 08:24:43;;;;;;;5.35;4.05;;;25.20;90.90;;;;;;5072181;28;20085;-83
2023/06/11 08:27:09;;;;;;;4.85;4.35;;;25.30;90.80;;;;;;5072299;28;20036;-82
2023/06/11 08:29:35;;;;;;;5.18;3.92;;;25.40;90.70;;;;;;5072546;28;20730;-83
2023/06/11 08:32:00;;;;;;;5.82;4.43;;;25.50;90.70;;;;;;5063062;28;20111;-83
2023/06/11 08:34:26;;;;;;;5.70;4.47;;;25.60;90.70;;;;;;5064033;28;20024;-82
2023/06/11 08:36:52;;;;;;;5.72;4.78;;;25.70;90.60;;;;;;5071635;28;20039;-84
2023/06/11 08:39:17;;;;;;;6.20;4.63;;;25.70;90.50;;;;;;5069581;28;20035;-83
2023/06/11 08:41:43;;;;;;;5.85;4.95;;;25.80;90.40;;;;;;5064103;28;22360;-81
2023/06/11 08:44:09;;;;;;;5.45;4.63;;;26.00;90.30;;;;;;5072954;28;20075;-82
2023/06/11 08:46:35;;;;;;;5.10;4.60;;;26.10;90.20;;;;;;5072764;28;20024;-82
2023/06/11 08:49:11;;;;;;;6.38;4.78;;;26.20;90.10;;;;;;5071782;28;20024;-83
2023/06/11 08:51:38;;;;;;;5.22;4.72;;;26.30;90.10;;;;;;5065025;28;20028;-83
2023/06/11 08:54:08;;;;;;;6.05;5.10;;;26.40;90.10;;;;;;5070112;28;20016;-83
2023/06/11 08:56:34;;;;;;;5.10;4.60;;;26.50;90.00;;;;;;5072786;28;20024;-82
2023/06/11 08:59:00;;;;;;;5.70;4.40;;;26.60;90.00;;;;;;5060783;28;20086;-83
2023/06/11 09:01:26;;;;;;;6.40;4.35;;;26.60;90.00;;;;;;5061715;28;20020;-83
2023/06/11 09:03:52;;;;;;;6.07;4.32;;;26.70;90.00;;;;;;5060865;28;20478;-84
2023/06/11 09:06:18;;;;;;;5.07;4.15;;;26.90;90.00;;;;;;5071774;28;20038;-82
2023/06/11 09:08:58;;;;;;;5.68;4.47;;;26.90;89.80;;;;;;5071697;28;20039;-83
2023/06/11 09:11:39;;;;;;;5.75;4.50;;;27.10;89.60;;;;;;5063300;28;20024;-83
2023/06/11 09:14:06;;;;;;;6.70;4.70;;;27.20;89.50;;;;;;5069951;28;20020;-83
2023/06/11 09:16:42;;;;;;;5.43;4.57;;;27.30;89.10;;;;;;5056073;28;20024;-82
2023/06/11 09:19:20;;;;;;;7.68;4.68;;;27.40;88.40;;;;;;5069912;28;20038;-82
2023/06/11 09:21:54;;;;;;;6.45;4.57;;;27.50;88.50;;;;;;5072727;28;20138;-79
2023/06/11 09:24:21;;;;;;;4.85;4.10;;;27.60;88.50;;;;;;5073412;28;20094;-80
2023/06/11 09:26:57;;;;;;;5.15;4.28;;;27.70;88.40;;;;;;5072899;28;20545;-81
2023/06/11 09:29:26;;;;;;;6.55;4.10;;;27.90;89.00;;;;;;5061778;28;20065;-81
2023/06/11 09:32:05;;;;;;;4.47;4.03;;;28.10;88.70;;;;;;5073269;28;20040;-80
2023/06/11 09:34:31;;;;;;;5.65;4.35;;;28.90;88.00;;;;;;5072038;28;20038;-80
2023/06/11 09:36:56;;;;;;;6.18;4.10;;;29.90;86.60;;;;;;5063006;28;20028;-81
2023/06/11 09:39:22;;;;;;;4.40;4.00;;;30.80;85.50;;;;;;5073328;28;20039;-80
2023/06/11 09:41:51;;;;;;;4.55;3.70;;;31.70;84.50;;;;;;5073601;28;20040;-81
2023/06/11 09:44:18;;;;;;;4.43;3.72;;;32.40;83.60;;;;;;5072769;28;20505;-83
2023/06/11 09:46:48;;;;;;;4.70;3.83;;;33.00;82.40;;;;;;5058190;28;20024;-81
2023/06/11 09:49:15;;;;;;;4.28;3.80;;;33.30;81.40;;;;;;5055326;28;20077;-81
2023/06/11 09:51:41;;;;;;;5.25;3.80;;;33.80;81.00;;;;;;5062160;28;20486;-81
2023/06/11 09:54:07;;;;;;;4.57;3.35;;;34.30;80.20;;;;;;5072876;28;20069;-82
2023/06/11 09:56:35;;;;;;;4.53;3.55;;;34.70;79.80;;;;;;5074651;28;20115;-82
2023/06/11 09:59:02;;;;;;;3.78;3.10;;;35.00;79.00;;;;;;5073084;28;20028;-80
2023/06/11 10:01:29;;;;;;;4.30;3.17;;;35.30;78.40;;;;;;5073214;28;20121;-81
2023/06/11 10:03:59;;;;;;;4.45;3.60;;;35.50;78.00;;;;;;5056573;28;20751;-84
2023/06/11 10:06:29;;;;;;;4.97;3.67;;;35.70;76.80;;;;;;5073650;28;20021;-83
2023/06/11 10:08:58;;;;;;;3.90;3.28;;;35.60;76.00;;;;;;5073343;28;20028;-83
2023/06/11 10:11:24;;;;;;;3.90;3.35;;;35.70;75.80;;;;;;5063039;28;20505;-81
2023/06/11 10:14:01;;;;;;;4.15;3.22;;;35.90;75.40;;;;;;5070670;28;20032;-82
2023/06/11 10:16:27;;;;;;;4.28;3.22;;;36.20;74.90;;;;;;5073094;28;20024;-82
2023/06/11 10:19:09;;;;;;;3.88;3.20;;;36.50;74.30;;;;;;5072477;28;20032;-82
2023/06/11 10:21:40;;;;;;;5.93;3.53;;;36.70;74.00;;;;;;5056782;28;20036;-82
2023/06/11 10:24:07;;;;;;;4.20;3.40;;;36.60;72.30;;;;;;5059308;28;20048;-83
2023/06/11 10:26:34;;;;;;;4.28;3.60;;;36.40;72.00;;;;;;5064043;28;20436;-82
2023/06/11 10:29:01;;;;;;;4.20;3.08;;;36.30;71.90;;;;;;5076428;28;20040;-81
2023/06/11 10:31:28;;;;;;;3.28;2.65;;;36.40;71.60;;;;;;5075706;28;20017;-82
2023/06/11 10:34:01;;;;;;;3.38;2.85;;;36.70;71.30;;;;;;5075557;28;20380;-82
2023/06/11 10:36:35;;;;;;;3.28;2.90;;;37.20;71.70;;;;;;5067377;28;20025;-82
2023/06/11 10:39:08;;;;;;;4.15;3.20;;;37.50;70.20;;;;;;5062483;28;20085;-82
2023/06/11 10:41:40;;;;;;;3.45;3.15;;;37.50;69.60;;;;;;5060537;28;20031;-82
2023/06/11 10:44:07;;;;;;;3.47;2.85;;;37.40;69.50;;;;;;5064630;28;20032;-81
2023/06/11 10:46:43;;;;;;;3.20;2.90;;;37.50;69.30;;;;;;5075896;28;20381;-81
2023/06/11 10:49:14;;;;;;;3.10;2.80;;;37.60;69.30;;;;;;5074771;28;20031;-80
2023/06/11 10:51:40;;;;;;;3.05;2.55;;;38.00;69.00;;;;;;5077070;28;20029;-80
2023/06/11 10:54:07;;;;;;;3.60;2.85;;;38.20;68.70;;;;;;5073854;28;20117;-83
2023/06/11 10:56:37;;;;;;;3.20;2.90;;;38.40;68.20;;;;;;5073228;28;20024;-81
2023/06/11 10:59:09;;;;;;;3.20;2.90;;;38.40;67.30;;;;;;5059547;28;20020;-82
2023/06/11 11:01:35;;;;;;;3.20;2.70;;;38.20;66.80;;;;;;5061024;28;20021;-82
2023/06/11 11:04:02;;;;;;;3.28;2.97;;;38.10;66.60;;;;;;5076887;28;20293;-80
2023/06/11 11:06:28;;;;;;;3.17;2.65;;;38.20;66.50;;;;;;5075194;28;20024;-81
2023/06/11 11:08:59;;;;;;;4.40;3.00;;;38.30;66.20;;;;;;5073693;28;20028;-83
2023/06/11 11:11:26;;;;;;;2.85;2.45;;;38.40;66.40;;;;;;5075907;28;20093;-84
2023/06/11 11:13:52;;;;;;;4.10;2.65;;;38.50;66.00;;;;;;5066126;28;20470;-84
2023/06/11 11:16:21;;;;;;;3.15;2.75;;;38.40;65.30;;;;;;5060842;28;20114;-82
2023/06/11 11:18:48;;;;;;;2.88;2.20;;;38.30;65.50;;;;;;5064792;28;20032;-84
2023/06/11 11:21:14;;;;;;;2.67;2.28;;;38.40;64.80;;;;;;5075609;28;20474;-84
2023/06/11 11:23:41;;;;;;;3.10;2.60;;;38.30;64.40;;;;;;5064624;28;20136;-83
2023/06/11 11:26:06;;;;;;;3.05;2.55;;;38.40;64.40;;;;;;5057969;28;20029;-83
2023/06/11 11:28:32;;;;;;;2.88;2.60;;;38.60;64.50;;;;;;5064620;28;20064;-84
2023/06/11 11:30:59;;;;;;;3.60;3.00;;;38.70;62.80;;;;;;5065623;28;20025;-85
2023/06/11 11:33:26;;;;;;;3.78;2.67;;;38.40;62.30;;;;;;5075967;28;20031;-83
2023/06/11 11:35:56;;;;;;;2.88;2.58;;;37.90;61.10;;;;;;5060284;28;20076;-84
2023/06/11 11:38:22;;;;;;;3.05;2.40;;;37.60;61.60;;;;;;5058516;28;20020;-84
2023/06/11 11:40:57;;;;;;;4.10;3.03;;;37.90;62.00;;;;;;5073657;28;20024;-84
2023/06/11 11:43:23;;;;;;;3.58;2.85;;;38.40;62.00;;;;;;5065425;28;20093;-84
2023/06/11 11:45:49;;;;;;;2.97;2.58;;;38.70;62.10;;;;;;5074149;28;20031;-81
2023/06/11 11:48:16;;;;;;;6.00;2.78;;;38.90;62.00;;;;;;5063514;28;20477;-84
2023/06/11 11:50:44;;;;;;;3.80;2.50;;;39.00;62.00;;;;;;5074687;28;20070;-82
2023/06/11 11:53:15;;;;;;;5.60;2.60;;;39.20;61.90;;;;;;5072647;28;20031;-83
2023/06/11 11:55:44;;;;;;;3.85;2.35;;;39.20;61.40;;;;;;5075431;28;20073;-84
2023/06/11 11:58:15;;;;;;;3.92;2.53;;;38.90;60.80;;;;;;5071061;28;20036;-83
2023/06/11 12:00:46;;;;;;;3.08;2.40;;;38.70;61.10;;;;;;5073082;28;20497;-83
2023/06/11 12:03:12;;;;;;;2.70;2.40;;;38.60;60.80;;;;;;5047440;28;20085;-83
2023/06/11 12:05:38;;;;;;;2.85;2.40;;;38.60;61.20;;;;;;5070197;28;20032;-83
2023/06/11 12:08:05;;;;;;;3.03;2.35;;;38.70;61.00;;;;;;5070829;28;20094;-83
2023/06/11 12:10:31;;;;;;;3.30;2.78;;;39.00;61.20;;;;;;5071514;28;20033;-82
2023/06/11 12:12:58;;;;;;;3.10;2.60;;;39.20;60.60;;;;;;5062096;28;20032;-83
2023/06/11 12:15:23;;;;;;;3.08;2.40;;;39.40;60.10;;;;;;5071258;28;20032;-85
2023/06/11 12:17:49;;;;;;;2.75;2.40;;;39.30;59.90;;;;;;5059464;28;20089;-83
2023/06/11 12:20:15;;;;;;;2.92;2.20;;;39.30;60.00;;;;;;5056529;28;20024;-83
2023/06/11 12:22:40;;;;;;;2.88;2.33;;;39.40;60.70;;;;;;5071399;28;20147;-84
2023/06/11 12:25:06;;;;;;;3.20;2.10;;;39.60;59.80;;;;;;5057707;28;20039;-83
2023/06/11 12:27:31;;;;;;;3.10;2.35;;;39.40;60.00;;;;;;5071349;28;20028;-83
2023/06/11 12:29:57;;;;;;;3.30;2.50;;;39.50;60.00;;;;;;5070905;28;20020;-84
2023/06/11 12:32:25;;;;;;;4.18;2.85;;;39.80;59.70;;;;;;5071858;28;20035;-83
2023/06/11 12:34:51;;;;;;;3.60;2.70;;;39.60;59.30;;;;;;5070979;28;20093;-84
2023/06/11 12:37:16;;;;;;;2.78;2.53;;;39.70;58.90;;;;;;5063729;28;20595;-83
2023/06/11 12:39:43;;;;;;;3.35;2.75;;;39.70;58.60;;;;;;5070816;28;20024;-84
2023/06/11 12:42:21;;;;;;;5.30;2.38;;;39.50;57.60;;;;;;5070599;28;20027;-84
2023/06/11 12:44:47;;;;;;;3.50;2.65;;;39.30;57.90;;;;;;5056316;28;20027;-85
2023/06/11 12:47:14;;;;;;;4.10;2.70;;;39.30;58.30;;;;;;5060882;28;20024;-84